createdAt,value
2018-04-30T00:00:08.478Z,100624.68
2018-04-30T00:02:36.055Z,100620.11
2018-04-30T00:05:03.762Z,100620.33
2018-04-30T00:07:31.291Z,100625.90
2018-04-30T00:09:59.964Z,100626.83
2018-04-30T00:12:28.623Z,100629.41
2018-04-30T00:14:56.699Z,100627.37
2018-04-30T00:17:25.169Z,100630.86
2018-04-30T00:19:52.947Z,100634.86
2018-04-30T00:22:20.483Z,100633.81
2018-04-30T00:24:48.051Z,100620.52
2018-04-30T00:27:15.571Z,100615.04
2018-04-30T00:29:44.094Z,100612.80
2018-04-30T00:32:11.642Z,100612.17
2018-04-30T00:34:39.234Z,100617.78
2018-04-30T00:37:07.519Z,100606.15
2018-04-30T00:39:35.719Z,100602.50
2018-04-30T00:42:03.266Z,100598.77
2018-04-30T00:44:31.699Z,100591.73
2018-04-30T00:47:00.082Z,100589.82
2018-04-30T00:49:27.773Z,100593.14
2018-04-30T00:51:55.343Z,100597.48
2018-04-30T00:54:36.043Z,100596.98
2018-04-30T00:57:03.595Z,100610.22
2018-04-30T00:59:31.124Z,100606.88
2018-04-30T01:01:58.777Z,100601.56
2018-04-30T01:04:26.444Z,100603.34
2018-04-30T01:06:53.994Z,100603.83
2018-04-30T01:09:22.225Z,100611.45
2018-04-30T01:11:49.774Z,100607.95
2018-04-30T01:14:18.043Z,100606.70
2018-04-30T01:16:46.351Z,100610.50
2018-04-30T01:19:13.888Z,100605.46
2018-04-30T01:21:41.435Z,100606.03
2018-04-30T01:24:09.102Z,100604.95
2018-04-30T01:26:36.635Z,100603.27
2018-04-30T01:29:04.295Z,100607.00
2018-04-30T01:31:32.252Z,100608.03
2018-04-30T01:33:59.847Z,100603.71
2018-04-30T01:36:28.182Z,100592.68
2018-04-30T01:38:55.716Z,100581.23
2018-04-30T01:41:23.290Z,100579.98
2018-04-30T01:43:51.249Z,100568.63
2018-04-30T01:46:18.795Z,100559.73
2018-04-30T01:48:46.979Z,100566.61
2018-04-30T01:51:14.532Z,100563.29
2018-04-30T01:53:42.849Z,100555.17
2018-04-30T01:56:10.383Z,100555.09
2018-04-30T01:58:37.998Z,100561.64
2018-04-30T02:01:05.571Z,100564.30
2018-04-30T02:03:33.098Z,100569.27
2018-04-30T02:06:00.640Z,100577.31
2018-04-30T02:08:28.498Z,100579.82
2018-04-30T02:10:56.866Z,100584.04
2018-04-30T02:13:25.479Z,100575.41
2018-04-30T02:15:54.747Z,100576.23
2018-04-30T02:18:22.988Z,100582.69
2018-04-30T02:20:51.124Z,100589.31
2018-04-30T02:23:18.683Z,100588.64
2018-04-30T02:25:46.228Z,100594.44
2018-04-30T02:28:13.839Z,100601.60
2018-04-30T03:39:42.699Z,100559.51
2018-04-30T03:42:10.234Z,100564.08
2018-04-30T03:44:37.767Z,100568.45
2018-04-30T03:47:06.057Z,100582.20
2018-04-30T03:49:33.754Z,100581.62
2018-04-30T03:52:01.287Z,100576.66
2018-04-30T03:54:28.861Z,100575.33
2018-04-30T03:56:56.422Z,100568.31
2018-04-30T03:59:23.957Z,100576.37
2018-04-30T04:02:03.219Z,100576.62
2018-04-30T04:04:42.542Z,100571.69
2018-04-30T04:07:10.755Z,100575.33
2018-04-30T04:09:38.309Z,100578.38
2018-04-30T04:12:05.876Z,100566.66
2018-04-30T04:14:34.383Z,100577.95
2018-04-30T04:17:02.907Z,100583.84
2018-04-30T04:19:31.011Z,100599.63
2018-04-30T04:21:58.547Z,100612.55
2018-04-30T04:24:26.660Z,100601.34
2018-04-30T04:26:54.888Z,100602.70
2018-04-30T04:29:22.898Z,100588.92
2018-04-30T04:31:52.186Z,100599.67
2018-04-30T04:34:20.608Z,100604.73
2018-04-30T04:36:48.474Z,100619.88
2018-04-30T04:39:16.012Z,100621.62
2018-04-30T04:41:43.576Z,100625.75
2018-04-30T04:44:11.138Z,100626.91
2018-04-30T04:46:38.691Z,100615.62
2018-04-30T04:49:06.894Z,100614.50
2018-04-30T04:51:34.434Z,100601.05
2018-04-30T04:54:01.985Z,100599.88
2018-04-30T04:56:29.646Z,100599.22
2018-04-30T04:58:57.208Z,100601.59
2018-04-30T05:01:24.768Z,100607.73
2018-04-30T05:03:52.682Z,100609.47
2018-04-30T05:06:20.339Z,100604.56
2018-04-30T05:08:48.081Z,100605.19
2018-04-30T05:11:15.648Z,100596.37
2018-04-30T05:13:43.802Z,100590.80
2018-04-30T05:16:11.351Z,100588.56
2018-04-30T05:18:39.318Z,100605.94
2018-04-30T05:21:07.602Z,100618.14
2018-04-30T05:23:35.791Z,100614.93
2018-04-30T05:26:03.343Z,100619.61
2018-04-30T05:28:32.130Z,100615.03
2018-04-30T05:31:00.011Z,100620.97
2018-04-30T05:33:28.179Z,100612.47
2018-04-30T05:35:55.726Z,100615.29
2018-04-30T05:38:23.276Z,100618.86
2018-04-30T05:40:50.966Z,100619.23
2018-04-30T05:43:18.807Z,100620.70
2018-04-30T05:45:46.399Z,100599.31
2018-04-30T05:48:14.859Z,100586.45
2018-04-30T05:50:43.083Z,100568.19
2018-04-30T05:53:10.651Z,100563.64
2018-04-30T05:55:38.188Z,100567.29
2018-04-30T05:58:05.767Z,100580.14
2018-04-30T06:00:33.356Z,100581.69
2018-04-30T06:03:00.958Z,100585.39
2018-04-30T06:05:28.530Z,100582.11
2018-04-30T06:07:56.864Z,100580.37
2018-04-30T06:10:24.408Z,100577.77
2018-04-30T06:12:52.119Z,100587.59
2018-04-30T06:15:20.489Z,100574.87
2018-04-30T06:17:49.178Z,100573.12
2018-04-30T06:20:17.671Z,100565.35
2018-04-30T06:22:45.877Z,100558.50
2018-04-30T06:25:13.904Z,100564.47
2018-04-30T06:27:41.450Z,100561.83
2018-04-30T06:30:09.886Z,100551.50
2018-04-30T06:32:37.416Z,100548.84
2018-04-30T06:35:04.954Z,100537.28
2018-04-30T06:37:32.522Z,100538.30
2018-04-30T06:40:00.072Z,100534.11
2018-04-30T06:42:27.608Z,100538.66
2018-04-30T06:44:55.187Z,100535.77
2018-04-30T06:47:23.356Z,100536.23
2018-04-30T06:49:51.017Z,100528.83
2018-04-30T06:52:18.678Z,100534.91
2018-04-30T06:54:46.262Z,100553.18
2018-04-30T06:57:13.797Z,100562.39
2018-04-30T06:59:41.363Z,100575.02
2018-04-30T07:02:08.951Z,100568.71
2018-04-30T07:04:36.483Z,100551.88
2018-04-30T07:07:05.164Z,100539.77
2018-04-30T07:09:32.792Z,100534.01
2018-04-30T07:12:00.279Z,100522.13
2018-04-30T07:14:28.691Z,100516.88
2018-04-30T07:16:56.751Z,100510.84
2018-04-30T07:19:24.843Z,100517.88
2018-04-30T07:21:52.936Z,100522.02
2018-04-30T07:24:20.482Z,100513.03
2018-04-30T07:26:48.349Z,100498.03
2018-04-30T07:29:15.903Z,100511.07
2018-04-30T07:31:43.864Z,100518.45
2018-04-30T07:34:11.414Z,100537.61
2018-04-30T07:36:39.471Z,100531.53
2018-04-30T07:39:07.135Z,100515.18
2018-04-30T07:41:34.616Z,100523.00
2018-04-30T07:44:02.187Z,100519.19
2018-04-30T07:46:29.714Z,100521.16
2018-04-30T07:48:57.969Z,100529.27
2018-04-30T07:51:25.500Z,100513.72
2018-04-30T07:53:53.059Z,100520.20
2018-04-30T07:56:20.615Z,100523.26
2018-04-30T07:58:48.424Z,100526.66
2018-04-30T08:01:16.932Z,100530.02
2018-04-30T08:03:45.322Z,100525.25
2018-04-30T08:06:13.415Z,100501.64
2018-04-30T08:08:40.943Z,100516.03
2018-04-30T08:11:08.475Z,100519.53
2018-04-30T08:13:36.602Z,100519.66
2018-04-30T08:16:04.727Z,100514.11
2018-04-30T08:18:32.858Z,100513.52
2018-04-30T08:21:01.177Z,100506.11
2018-04-30T08:23:28.705Z,100517.77
2018-04-30T08:25:56.277Z,100525.52
2018-04-30T08:28:23.851Z,100526.87
2018-04-30T08:30:53.181Z,100532.36
2018-04-30T08:33:20.713Z,100528.34
2018-04-30T08:35:48.783Z,100539.70
2018-04-30T08:38:16.350Z,100541.36
2018-04-30T08:40:43.899Z,100512.95
2018-04-30T08:43:11.440Z,100527.70
2018-04-30T08:45:39.000Z,100523.70
2018-04-30T08:48:08.333Z,100506.27
2018-04-30T08:50:35.854Z,100513.30
2018-04-30T08:53:03.411Z,100511.84
2018-04-30T08:55:30.973Z,100509.79
2018-04-30T08:57:58.680Z,100520.95
2018-04-30T09:00:26.352Z,100504.45
2018-04-30T09:02:54.527Z,100507.87
2018-04-30T09:05:22.742Z,100495.12
2018-04-30T09:07:50.951Z,100488.41
2018-04-30T09:10:18.637Z,100474.73
2018-04-30T09:12:46.167Z,100475.94
2018-04-30T09:15:14.521Z,100460.97
2018-04-30T09:17:42.634Z,100472.06
2018-04-30T09:20:10.919Z,100474.22
2018-04-30T09:22:39.357Z,100462.56
2018-04-30T09:25:06.904Z,100480.72
2018-04-30T09:27:34.447Z,100480.89
2018-04-30T09:30:02.028Z,100469.81
2018-04-30T09:32:30.251Z,100476.92
2018-04-30T09:34:57.850Z,100457.42
2018-04-30T09:37:25.574Z,100468.97
2018-04-30T09:39:53.139Z,100471.14
2018-04-30T09:42:20.666Z,100472.28
2018-04-30T09:44:48.315Z,100477.96
2018-04-30T09:47:16.403Z,100470.22
2018-04-30T09:49:43.944Z,100484.56
2018-04-30T09:52:11.502Z,100476.81
2018-04-30T09:54:39.059Z,100463.30
2018-04-30T09:57:06.588Z,100457.87
2018-04-30T09:59:34.120Z,100449.77
2018-04-30T10:02:01.688Z,100454.11
2018-04-30T10:04:29.240Z,100438.45
2018-04-30T10:06:58.387Z,100440.09
2018-04-30T10:09:25.963Z,100428.61
2018-04-30T10:11:54.201Z,100419.69
2018-04-30T10:14:22.642Z,100401.81
2018-04-30T10:16:50.799Z,100409.02
2018-04-30T10:19:18.703Z,100408.01
2018-04-30T10:21:46.713Z,100399.10
2018-04-30T10:24:15.032Z,100415.45
2018-04-30T10:26:42.613Z,100380.07
2018-04-30T10:29:10.258Z,100398.49
2018-04-30T10:31:38.419Z,100395.48
2018-04-30T10:34:05.947Z,100398.77
2018-04-30T10:36:33.509Z,100393.05
2018-04-30T10:39:01.103Z,100396.83
2018-04-30T10:41:28.630Z,100373.66
2018-04-30T10:43:56.288Z,100392.22
2018-04-30T10:46:23.942Z,100401.87
2018-04-30T10:48:52.216Z,100405.00
2018-04-30T10:51:20.978Z,100389.52
2018-04-30T10:53:48.782Z,100395.42
2018-04-30T10:56:16.427Z,100383.55
2018-04-30T10:58:44.929Z,100393.66
2018-04-30T11:01:12.467Z,100387.16
2018-04-30T11:03:40.887Z,100396.00
2018-04-30T11:06:09.252Z,100388.59
2018-04-30T11:08:37.740Z,100386.87
2018-04-30T11:11:05.771Z,100390.16
2018-04-30T11:13:33.872Z,100384.30
2018-04-30T11:16:01.851Z,100373.38
2018-04-30T11:18:30.216Z,100379.31
2018-04-30T11:20:58.918Z,100357.46
2018-04-30T11:23:26.445Z,100358.62
2018-04-30T11:25:53.987Z,100354.86
2018-04-30T11:28:21.557Z,100366.09
2018-04-30T11:30:50.073Z,100352.37
2018-04-30T11:33:17.782Z,100343.62
2018-04-30T11:35:45.347Z,100343.26
2018-04-30T11:38:12.926Z,100344.58
2018-04-30T11:40:40.470Z,100344.05
2018-04-30T11:43:08.979Z,100337.50
2018-04-30T11:45:36.598Z,100340.91
2018-04-30T11:48:05.215Z,100317.34
2018-04-30T11:50:32.764Z,100324.45
2018-04-30T11:53:00.314Z,100326.10
2018-04-30T11:55:27.949Z,100315.55
2018-04-30T11:57:55.460Z,100327.00
2018-04-30T12:00:23.013Z,100320.79
2018-04-30T12:02:51.007Z,100316.98
2018-04-30T12:05:18.670Z,100332.90
2018-04-30T12:07:47.389Z,100293.92
2018-04-30T12:10:15.606Z,100329.01
2018-04-30T12:12:43.574Z,100302.95
2018-04-30T12:15:12.001Z,100315.94
2018-04-30T12:17:40.337Z,100301.76
2018-04-30T12:20:08.743Z,100321.44
2018-04-30T12:22:36.686Z,100284.55
2018-04-30T12:25:04.232Z,100306.03
2018-04-30T12:27:31.814Z,100308.20
2018-04-30T12:29:59.470Z,100316.21
2018-04-30T12:32:27.823Z,100313.39
2018-04-30T12:34:55.368Z,100299.21
2018-04-30T12:37:22.971Z,100295.53
2018-04-30T12:39:50.711Z,100296.16
2018-04-30T12:42:18.638Z,100285.09
2018-04-30T12:44:46.250Z,100281.83
2018-04-30T12:47:14.225Z,100283.00
2018-04-30T12:49:41.846Z,100282.58
2018-04-30T12:52:09.987Z,100281.69
2018-04-30T12:54:37.583Z,100282.62
2018-04-30T12:57:05.132Z,100274.06
2018-04-30T12:59:32.724Z,100283.84
2018-04-30T13:02:00.424Z,100271.11
2018-04-30T13:04:28.595Z,100260.84
2018-04-30T13:06:56.741Z,100254.22
2018-04-30T13:09:24.819Z,100268.44
2018-04-30T13:11:52.792Z,100262.02
2018-04-30T13:14:21.159Z,100255.98
2018-04-30T13:16:50.218Z,100247.88
2018-04-30T13:19:17.852Z,100263.30
2018-04-30T13:21:46.242Z,100269.77
2018-04-30T13:24:13.797Z,100258.54
2018-04-30T13:26:41.358Z,100248.03
2018-04-30T13:29:09.725Z,100257.85
2018-04-30T13:31:38.140Z,100238.59
2018-04-30T13:34:05.666Z,100256.21
2018-04-30T13:36:33.227Z,100250.33
2018-04-30T13:39:00.802Z,100241.86
2018-04-30T13:41:28.341Z,100231.38
2018-04-30T13:43:55.877Z,100255.94
2018-04-30T13:46:23.427Z,100249.64
2018-04-30T13:48:51.931Z,100249.72
2018-04-30T13:51:19.633Z,100235.02
2018-04-30T13:53:47.182Z,100237.77
2018-04-30T13:56:14.850Z,100224.46
2018-04-30T13:58:42.397Z,100219.96
2018-04-30T14:01:09.923Z,100243.81
2018-04-30T14:03:37.939Z,100224.77
2018-04-30T14:06:06.295Z,100209.30
2018-04-30T14:08:33.829Z,100188.04
2018-04-30T14:11:02.109Z,100209.81
2018-04-30T14:13:30.330Z,100201.21
2018-04-30T14:15:58.243Z,100204.95
2018-04-30T14:18:26.338Z,100213.63
2018-04-30T14:20:54.205Z,100198.17
2018-04-30T14:23:21.826Z,100189.44
2018-04-30T14:25:49.615Z,100196.56
2018-04-30T14:28:17.167Z,100163.09
2018-04-30T14:30:45.275Z,100154.63
2018-04-30T14:33:12.834Z,100157.95
2018-04-30T14:35:41.301Z,100152.58
2018-04-30T14:38:08.840Z,100151.77
2018-04-30T14:40:36.384Z,100148.73
2018-04-30T14:43:04.060Z,100135.84
2018-04-30T14:45:32.105Z,100150.45
2018-04-30T14:48:00.326Z,100136.61
2018-04-30T14:50:28.703Z,100135.11
2018-04-30T14:52:56.239Z,100131.70
2018-04-30T14:55:23.818Z,100135.22
2018-04-30T14:57:51.460Z,100124.11
2018-04-30T15:00:19.266Z,100122.40
2018-04-30T15:02:46.793Z,100102.77
2018-04-30T15:05:14.394Z,100090.74
2018-04-30T15:07:42.513Z,100104.17
2018-04-30T15:10:10.042Z,100108.72
2018-04-30T15:12:38.100Z,100105.47
2018-04-30T15:15:06.214Z,100102.30
2018-04-30T15:17:34.426Z,100093.26
2018-04-30T15:20:02.590Z,100086.95
2018-04-30T15:22:30.135Z,100098.45
2018-04-30T15:24:57.662Z,100083.63
2018-04-30T15:27:25.329Z,100072.59
2018-04-30T15:29:53.818Z,100059.04
2018-04-30T15:32:21.971Z,100051.61
2018-04-30T15:34:49.604Z,100068.65
2018-04-30T15:37:17.194Z,100060.16
2018-04-30T15:39:44.918Z,100051.42
2018-04-30T15:42:12.488Z,100005.84
2018-04-30T15:44:40.134Z,100011.64
2018-04-30T15:47:08.336Z,100042.45
2018-04-30T15:49:36.710Z,100014.54
2018-04-30T15:52:04.232Z,100023.91
2018-04-30T15:54:31.782Z,100012.16
2018-04-30T15:56:59.872Z,100035.95
2018-04-30T15:59:27.426Z,100036.44
2018-04-30T16:01:54.948Z,100046.86
2018-04-30T16:04:22.628Z,100051.95
2018-04-30T16:06:50.920Z,100048.88
2018-04-30T16:09:18.574Z,100054.08
2018-04-30T16:11:46.735Z,100043.83
2018-04-30T16:14:15.105Z,100050.84
2018-04-30T16:16:43.123Z,100028.45
2018-04-30T16:19:11.079Z,100013.67
2018-04-30T16:21:39.458Z,100014.64
2018-04-30T16:24:06.994Z,100012.89
2018-04-30T16:26:34.514Z,100007.68
2018-04-30T16:29:02.078Z,100016.59
2018-04-30T16:31:30.064Z,100010.86
2018-04-30T16:33:57.612Z,100025.45
2018-04-30T16:36:25.171Z,100024.95
2018-04-30T16:38:52.795Z,100005.44
2018-04-30T16:41:20.380Z,99992.17
2018-04-30T16:43:48.167Z,99962.08
2018-04-30T16:46:16.181Z,99975.34
2018-04-30T16:48:44.381Z,100002.36
2018-04-30T16:51:11.942Z,99996.06
2018-04-30T16:53:39.532Z,99991.88
2018-04-30T16:56:07.062Z,99952.01
2018-04-30T16:58:34.648Z,99972.23
2018-04-30T17:01:02.159Z,99974.78
2018-04-30T17:03:29.962Z,99992.22
2018-04-30T17:05:57.979Z,100003.41
2018-04-30T17:08:25.650Z,99951.90
2018-04-30T17:10:53.188Z,99928.98
2018-04-30T17:13:21.618Z,99924.87
2018-04-30T17:15:49.259Z,99941.08
2018-04-30T17:18:17.364Z,99945.78
2018-04-30T17:20:45.626Z,99951.83
2018-04-30T17:23:13.167Z,99933.66
2018-04-30T17:25:40.695Z,99938.27
2018-04-30T17:28:08.254Z,99947.80
2018-04-30T17:30:36.861Z,99933.84
2018-04-30T17:33:04.397Z,99924.41
2018-04-30T17:35:31.914Z,99922.16
2018-04-30T17:37:59.466Z,99926.36
2018-04-30T17:40:26.991Z,99939.18
2018-04-30T17:42:55.316Z,99939.08
2018-04-30T17:45:23.555Z,99952.12
2018-04-30T17:47:51.772Z,99966.45
2018-04-30T17:50:19.556Z,99944.00
2018-04-30T17:52:47.074Z,99949.13
2018-04-30T17:55:14.643Z,99959.79
2018-04-30T17:57:42.859Z,99965.95
2018-04-30T18:00:10.444Z,99970.56
2018-04-30T18:02:37.983Z,99969.14
2018-04-30T18:05:05.527Z,99976.53
2018-04-30T18:07:33.607Z,99961.57
2018-04-30T18:10:01.139Z,99963.95
2018-04-30T18:12:29.354Z,99955.22
2018-04-30T18:14:57.542Z,99943.92
2018-04-30T18:17:25.666Z,99930.91
2018-04-30T18:19:54.315Z,99931.84
2018-04-30T18:22:21.941Z,99927.64
2018-04-30T18:24:49.574Z,99921.58
2018-04-30T18:27:17.142Z,99906.50
2018-04-30T18:29:44.893Z,99894.59
2018-04-30T18:32:13.171Z,99876.23
2018-04-30T18:34:40.691Z,99853.14
2018-04-30T18:37:08.217Z,99867.91
2018-04-30T18:39:35.784Z,99898.39
2018-04-30T18:42:04.067Z,99903.21
2018-04-30T18:44:31.638Z,99900.13
2018-04-30T18:47:00.128Z,99904.03
2018-04-30T18:49:27.647Z,99894.38
2018-04-30T18:51:55.168Z,99893.46
2018-04-30T18:54:22.771Z,99905.27
2018-04-30T18:56:50.287Z,99900.84
2018-04-30T18:59:19.342Z,99885.06
2018-04-30T19:01:46.917Z,99889.66
2018-04-30T19:04:14.458Z,99883.81
2018-04-30T19:06:43.084Z,99883.30
2018-04-30T19:09:10.708Z,99899.41
2018-04-30T19:11:38.183Z,99908.97
2018-04-30T19:14:06.343Z,99918.72
2018-04-30T19:16:33.888Z,99917.89
2018-04-30T19:19:02.209Z,99917.78
2018-04-30T19:21:30.028Z,99928.45
2018-04-30T19:23:57.554Z,99921.17
2018-04-30T19:26:25.107Z,99910.88
2018-04-30T19:28:52.719Z,99882.66
2018-04-30T19:31:21.362Z,99897.20
2018-04-30T19:33:48.971Z,99870.21
2018-04-30T19:36:16.518Z,99859.05
2018-04-30T19:38:44.805Z,99864.98
2018-04-30T19:41:12.337Z,99855.73
2018-04-30T19:43:39.854Z,99843.63
2018-04-30T19:46:08.533Z,99851.63
2018-04-30T19:48:36.910Z,99845.29
2018-04-30T19:51:05.017Z,99837.70
2018-04-30T19:53:32.543Z,99842.81
2018-04-30T19:56:00.171Z,99831.64
2018-04-30T19:58:27.734Z,99819.66
2018-04-30T20:00:55.259Z,99817.40
2018-04-30T20:03:22.791Z,99827.55
2018-04-30T20:05:51.399Z,99837.59
2018-04-30T20:08:18.994Z,99834.33
2018-04-30T20:10:46.514Z,99818.14
2018-04-30T20:13:15.016Z,99811.06
2018-04-30T20:15:42.535Z,99825.33
2018-04-30T20:18:10.800Z,99816.31
2018-04-30T20:20:38.902Z,99814.17
2018-04-30T20:23:06.502Z,99808.52
2018-04-30T20:25:34.049Z,99811.30
2018-04-30T20:28:01.611Z,99813.23
2018-04-30T20:30:29.787Z,99816.12
2018-04-30T20:32:57.319Z,99808.02
2018-04-30T20:35:25.742Z,99826.20
2018-04-30T20:37:53.275Z,99822.01
2018-04-30T20:40:20.798Z,99801.80
2018-04-30T20:42:48.543Z,99790.59
2018-04-30T20:45:16.881Z,99781.14
2018-04-30T20:47:44.902Z,99779.42
2018-04-30T20:50:12.820Z,99777.78
2018-04-30T20:52:40.383Z,99755.83
2018-04-30T20:55:07.904Z,99757.77
2018-04-30T20:57:35.461Z,99737.68
2018-04-30T21:00:03.061Z,99738.19
2018-04-30T21:02:30.563Z,99727.42
2018-04-30T21:04:58.239Z,99724.77
2018-04-30T21:07:26.772Z,99724.36
2018-04-30T21:09:54.311Z,99721.70
2018-04-30T21:12:21.883Z,99725.07
2018-04-30T21:14:50.664Z,99746.58
2018-04-30T21:17:19.000Z,99733.67
2018-04-30T21:19:46.928Z,99728.45
2018-04-30T21:22:14.477Z,99722.28
2018-04-30T21:24:42.026Z,99718.38
2018-04-30T21:27:09.594Z,99718.19
2018-04-30T21:29:37.147Z,99701.38
2018-04-30T21:32:05.265Z,99722.18
2018-04-30T21:34:33.630Z,99729.45
2018-04-30T21:37:02.510Z,99704.47
2018-04-30T21:39:30.687Z,99720.66
2018-04-30T21:41:58.227Z,99711.84
2018-04-30T21:44:25.796Z,99704.77
2018-04-30T21:46:54.192Z,99709.17
2018-04-30T21:49:22.454Z,99702.01
2018-04-30T21:51:50.016Z,99703.75
2018-04-30T21:54:17.613Z,99707.02
2018-04-30T21:56:45.211Z,99700.66
2018-04-30T21:59:12.783Z,99706.91
2018-04-30T22:01:40.335Z,99704.45
2018-04-30T22:04:07.894Z,99703.52
2018-04-30T22:06:36.359Z,99698.69
2018-04-30T22:09:03.959Z,99698.79
2018-04-30T22:11:31.478Z,99704.45
2018-04-30T22:13:59.577Z,99698.48
2018-04-30T22:16:27.145Z,99699.09
2018-04-30T22:18:55.231Z,99689.03
2018-04-30T22:21:23.286Z,99681.77
2018-04-30T22:23:50.874Z,99710.11
2018-04-30T22:26:18.705Z,99684.80
2018-04-30T22:28:47.096Z,99674.35
2018-04-30T22:31:15.226Z,99681.94
2018-04-30T22:33:42.780Z,99685.72
2018-04-30T22:36:10.311Z,99677.42
2018-04-30T22:38:37.868Z,99663.78
2018-04-30T22:41:05.383Z,99664.50
2018-04-30T22:43:33.194Z,99679.84
2018-04-30T22:46:01.763Z,99693.95
2018-04-30T22:48:30.174Z,99663.11
2018-04-30T22:50:57.695Z,99658.59
2018-04-30T22:53:25.219Z,99657.80
2018-04-30T22:55:52.838Z,99647.04
2018-04-30T22:58:20.371Z,99646.62
2018-04-30T23:00:48.152Z,99639.06
2018-04-30T23:03:16.336Z,99652.46
2018-04-30T23:05:43.973Z,99638.84
2018-04-30T23:08:12.215Z,99643.66
2018-04-30T23:10:39.777Z,99645.91
2018-04-30T23:13:08.285Z,99637.92
2018-04-30T23:15:35.814Z,99646.61
2018-04-30T23:18:04.228Z,99632.60
2018-04-30T23:20:32.703Z,99626.98
2018-04-30T23:23:00.361Z,99617.77
2018-04-30T23:25:27.897Z,99612.36
2018-04-30T23:27:56.851Z,99619.32
2018-04-30T23:30:25.214Z,99611.13
2018-04-30T23:32:52.738Z,99609.58
2018-04-30T23:35:20.445Z,99606.49
2018-04-30T23:37:48.116Z,99609.56
2018-04-30T23:40:15.690Z,99599.02
2018-04-30T23:42:43.231Z,99604.95
2018-04-30T23:45:10.790Z,99597.26
2018-04-30T23:47:39.087Z,99598.19
2018-04-30T23:50:07.607Z,99587.34
2018-04-30T23:52:35.676Z,99583.23
2018-04-30T23:55:03.276Z,99586.30
2018-04-30T23:57:30.808Z,99591.09
2018-04-30T23:59:58.355Z,99581.78
